SBPB/PHB METAR and TAF weather

Enter ICAO airport designator
Station Type Date Time Source
SBPB METAR 2021/09/15 20:00 UTC NOAA

SBPB 152000Z 07015KT CAVOK 29/24 Q1010


Station Type Date Time Source
SBPB Decoded METAR 2021/09/15 20:00 UTC NOAA

Parnaiba Aeroporto , Brazil (SBPB) 02-55S 041-45W
Sep 15, 2021 - 04:00 PM EDT / 2021.09.15 2000 UTC
Wind: from the ENE (070 degrees) at 17 MPH (15 KT):0
Visibility: greater than 7 mile(s):0
Temperature: 84 F (29 C)
Dew Point: 75 F (24 C)
Relative Humidity: 74%
Pressure (altimeter): 29.83 in. Hg (1010 hPa)
ob: SBPB 152000Z 07015KT CAVOK 29/24 Q1010
cycle: 20

Station Type Date Time Source
SBPB TAF 2021/09/16 12:09 UTC NOAA

TAF SBPB 160900Z 1612/1624 05015KT 9999 FEW020 TX32/1615Z TN30/1619Z
RMK PHD

Example: see airport list